createdAt,value
2023-03-29T00:01:00.991Z,1.03
2023-03-29T00:02:03.999Z,1.10
2023-03-29T00:03:06.320Z,1.06
2023-03-29T00:04:10.427Z,1.13
2023-03-29T00:05:13.453Z,1.05
2023-03-29T00:06:22.648Z,1.07
2023-03-29T00:07:26.379Z,1.11
2023-03-29T00:08:29.910Z,1.14
2023-03-29T00:09:36.183Z,1.17
2023-03-29T00:10:38.110Z,1.16
2023-03-29T00:11:40.361Z,1.17
2023-03-29T00:12:42.370Z,1.20
2023-03-29T00:13:44.775Z,1.14
2023-03-29T00:14:46.566Z,1.11
2023-03-29T00:15:48.575Z,1.09
2023-03-29T00:16:50.706Z,1.11
2023-03-29T00:17:52.754Z,1.14
2023-03-29T00:18:55.783Z,1.02
2023-03-29T00:19:58.161Z,0.98
2023-03-29T00:21:01.273Z,0.97
2023-03-29T00:22:06.891Z,0.97
2023-03-29T00:23:08.982Z,0.97
2023-03-29T00:24:11.039Z,1.03
2023-03-29T00:25:14.148Z,0.97
2023-03-29T00:26:16.301Z,1.02
2023-03-29T00:27:18.293Z,1.03
2023-03-29T00:28:20.479Z,1.03
2023-03-29T00:29:22.510Z,0.97
2023-03-29T00:30:24.532Z,1.02
2023-03-29T00:31:27.655Z,1.10
2023-03-29T00:32:29.772Z,1.06
2023-03-29T00:33:32.446Z,0.94
2023-03-29T00:34:36.484Z,0.96
2023-03-29T00:35:39.756Z,1.05
2023-03-29T00:36:41.700Z,1.05
2023-03-29T00:37:43.790Z,1.08
2023-03-29T00:38:45.876Z,1.09
2023-03-29T00:39:48.425Z,1.10
2023-03-29T00:40:50.413Z,1.15
2023-03-29T00:41:52.486Z,1.15
2023-03-29T00:42:56.515Z,1.11
2023-03-29T00:44:01.366Z,1.09
2023-03-29T00:45:10.481Z,1.07
2023-03-29T00:46:12.467Z,1.05
2023-03-29T00:47:14.578Z,1.01
2023-03-29T00:48:27.468Z,0.96
2023-03-29T00:49:29.852Z,0.98
2023-03-29T00:50:39.813Z,1.01
2023-03-29T00:51:42.883Z,1.05
2023-03-29T00:52:55.253Z,1.04
2023-03-29T00:54:02.111Z,1.02
2023-03-29T00:55:11.731Z,1.04
2023-03-29T00:56:23.091Z,1.11
2023-03-29T00:57:27.938Z,1.02
2023-03-29T00:58:38.509Z,0.98
2023-03-29T00:59:43.024Z,0.94
2023-03-29T01:00:55.661Z,0.93
2023-03-29T01:02:02.396Z,0.92
2023-03-29T01:03:13.978Z,0.90
2023-03-29T01:04:29.692Z,0.82
2023-03-29T01:05:38.167Z,0.81
2023-03-29T01:06:43.923Z,0.76
2023-03-29T01:08:11.313Z,0.79
2023-03-29T01:09:16.724Z,0.83
2023-03-29T01:10:39.975Z,0.86
2023-03-29T01:11:47.794Z,0.88
2023-03-29T01:12:56.615Z,0.85
2023-03-29T01:14:35.761Z,0.77
2023-03-29T01:15:41.373Z,0.74
2023-03-29T01:16:43.470Z,0.77
2023-03-29T01:17:51.065Z,0.73
2023-03-29T01:18:53.234Z,0.72
2023-03-29T01:20:10.918Z,0.73
2023-03-29T01:21:33.752Z,0.73
2023-03-29T01:22:56.103Z,0.75
2023-03-29T01:24:25.071Z,0.76
2023-03-29T01:25:34.834Z,0.73
2023-03-29T01:27:15.857Z,0.75
2023-03-29T01:28:34.730Z,0.83
2023-03-29T01:29:47.304Z,0.84
2023-03-29T01:31:07.319Z,0.90
2023-03-29T01:32:39.742Z,0.79
2023-03-29T01:33:48.936Z,0.72
2023-03-29T01:35:04.254Z,0.73
2023-03-29T01:36:37.397Z,0.82
2023-03-29T01:38:07.544Z,0.88
2023-03-29T01:39:09.581Z,0.91
2023-03-29T01:40:12.365Z,0.87
2023-03-29T01:41:15.019Z,0.85
2023-03-29T01:42:31.969Z,0.91
2023-03-29T01:43:37.441Z,0.92
2023-03-29T01:44:49.208Z,1.00
2023-03-29T01:46:14.258Z,0.98
2023-03-29T01:47:36.391Z,1.00
2023-03-29T01:48:51.159Z,1.06
2023-03-29T01:50:18.279Z,1.06
2023-03-29T01:51:36.130Z,1.03
2023-03-29T01:52:53.295Z,1.06
2023-03-29T01:54:01.819Z,0.99
2023-03-29T01:55:11.241Z,0.95
2023-03-29T01:56:26.625Z,0.97
2023-03-29T01:57:31.573Z,0.97
2023-03-29T01:58:38.558Z,0.94
2023-03-29T01:59:44.958Z,0.93
2023-03-29T02:00:47.473Z,0.96
2023-03-29T02:01:51.166Z,1.03
2023-03-29T02:02:55.153Z,1.07
2023-03-29T02:04:03.196Z,1.10
2023-03-29T02:05:06.974Z,1.10
2023-03-29T02:06:12.410Z,1.13
2023-03-29T02:07:17.856Z,1.06
2023-03-29T02:08:22.610Z,1.09
2023-03-29T02:09:24.785Z,1.12
2023-03-29T02:10:28.378Z,1.08
2023-03-29T02:11:30.811Z,1.01
2023-03-29T02:12:32.929Z,0.97
2023-03-29T02:13:36.580Z,1.04
2023-03-29T02:14:39.153Z,1.10
2023-03-29T02:15:41.201Z,1.10
2023-03-29T02:16:43.263Z,1.04
2023-03-29T02:17:46.562Z,1.00
2023-03-29T02:18:50.708Z,1.00
2023-03-29T02:20:23.784Z,1.03
2023-03-29T02:21:37.157Z,0.99
2023-03-29T02:22:46.758Z,1.02
2023-03-29T02:23:50.751Z,1.06
2023-03-29T02:24:59.487Z,1.08
2023-03-29T02:26:04.113Z,1.04
2023-03-29T02:27:06.478Z,0.98
2023-03-29T02:28:08.691Z,1.03
2023-03-29T02:29:11.312Z,1.04
2023-03-29T02:30:14.821Z,1.04
2023-03-29T02:31:43.163Z,1.01
2023-03-29T02:33:00.874Z,1.02
2023-03-29T02:34:09.046Z,0.98
2023-03-29T02:35:17.418Z,1.01
2023-03-29T02:36:24.390Z,1.03
2023-03-29T02:37:30.486Z,1.04
2023-03-29T02:38:33.444Z,1.03
2023-03-29T02:39:37.250Z,0.92
2023-03-29T02:40:42.272Z,0.88
2023-03-29T02:41:47.668Z,0.92
2023-03-29T02:42:50.255Z,0.93
2023-03-29T02:43:54.236Z,0.99
2023-03-29T02:44:59.364Z,0.97
2023-03-29T02:46:03.303Z,0.93
2023-03-29T02:47:17.733Z,0.91
2023-03-29T02:48:22.073Z,0.94
2023-03-29T02:49:25.113Z,0.98
2023-03-29T02:50:30.964Z,1.03
2023-03-29T02:51:34.464Z,1.04
2023-03-29T02:52:41.335Z,1.05
2023-03-29T02:53:50.261Z,1.04
2023-03-29T02:54:54.758Z,1.05
2023-03-29T02:55:56.708Z,1.10
2023-03-29T02:57:01.003Z,1.09
2023-03-29T02:58:08.502Z,1.07
2023-03-29T02:59:12.404Z,1.08
2023-03-29T03:00:19.096Z,1.00
2023-03-29T03:01:21.261Z,0.98
2023-03-29T03:02:26.388Z,0.96
2023-03-29T03:03:29.454Z,0.93
2023-03-29T03:04:32.282Z,0.95
2023-03-29T03:05:35.242Z,0.97
2023-03-29T03:06:38.364Z,1.00
2023-03-29T03:07:40.920Z,0.99
2023-03-29T03:08:42.666Z,1.00
2023-03-29T03:09:44.811Z,0.94
2023-03-29T03:10:47.129Z,0.93
2023-03-29T03:11:49.156Z,0.95
2023-03-29T03:12:51.279Z,0.96
2023-03-29T03:13:53.246Z,0.96
2023-03-29T03:14:55.220Z,1.02
2023-03-29T03:15:57.361Z,1.06
2023-03-29T03:16:59.911Z,1.10
2023-03-29T03:18:03.921Z,1.12
2023-03-29T03:19:06.433Z,1.17
2023-03-29T03:20:13.953Z,1.18
2023-03-29T03:21:16.206Z,1.17
2023-03-29T03:22:18.599Z,1.17
2023-03-29T03:23:20.443Z,1.24
2023-03-29T03:24:22.472Z,1.24
2023-03-29T03:25:24.676Z,1.23
2023-03-29T03:26:30.447Z,1.25
2023-03-29T03:27:34.439Z,1.31
2023-03-29T03:28:36.486Z,1.33
2023-03-29T03:29:39.153Z,1.34
2023-03-29T03:30:41.172Z,1.25
2023-03-29T03:31:43.311Z,1.22
2023-03-29T03:32:45.352Z,1.24
2023-03-29T03:33:47.424Z,1.21
2023-03-29T03:34:49.914Z,1.17
2023-03-29T03:35:51.830Z,1.25
2023-03-29T03:36:58.239Z,1.26
2023-03-29T03:38:00.485Z,1.28
2023-03-29T03:39:06.036Z,1.28
2023-03-29T03:40:09.448Z,1.28
2023-03-29T03:41:11.413Z,1.29
2023-03-29T03:42:13.332Z,1.29
2023-03-29T03:43:15.331Z,1.29
2023-03-29T03:44:17.486Z,1.25
2023-03-29T03:45:19.528Z,1.27
2023-03-29T03:46:21.855Z,1.25
2023-03-29T03:47:24.071Z,1.28
2023-03-29T03:48:26.586Z,1.27
2023-03-29T03:49:28.378Z,1.31
2023-03-29T03:50:30.421Z,1.33
2023-03-29T03:51:32.446Z,1.31
2023-03-29T03:52:34.422Z,1.30
2023-03-29T03:53:36.473Z,1.25
2023-03-29T03:54:38.502Z,1.21
2023-03-29T03:55:40.504Z,1.25
2023-03-29T03:56:42.567Z,1.35
2023-03-29T03:57:44.895Z,1.34
2023-03-29T03:58:47.885Z,1.33
2023-03-29T03:59:49.914Z,1.30
2023-03-29T04:00:52.146Z,1.25
2023-03-29T04:01:54.195Z,1.21
2023-03-29T04:02:56.648Z,1.13
2023-03-29T04:03:58.663Z,1.11
2023-03-29T04:05:03.555Z,1.13
2023-03-29T04:06:06.522Z,1.06
2023-03-29T04:07:08.899Z,1.10
2023-03-29T04:08:12.815Z,1.10
2023-03-29T04:09:14.864Z,1.11
2023-03-29T04:10:17.386Z,1.14
2023-03-29T04:11:19.384Z,1.15
2023-03-29T04:12:21.418Z,1.14
2023-03-29T04:13:24.493Z,1.17
2023-03-29T04:14:27.561Z,1.19
2023-03-29T04:15:30.216Z,1.12
2023-03-29T04:16:32.243Z,1.09
2023-03-29T04:17:34.720Z,1.12
2023-03-29T04:18:36.912Z,1.17
2023-03-29T04:19:38.992Z,1.18
2023-03-29T04:20:41.020Z,1.21
2023-03-29T04:21:45.938Z,1.22
2023-03-29T04:22:47.950Z,1.25
2023-03-29T04:23:49.991Z,1.34
2023-03-29T04:24:52.666Z,1.40
2023-03-29T04:25:56.834Z,1.44
2023-03-29T04:26:58.830Z,1.50
2023-03-29T04:28:00.932Z,1.52
2023-03-29T04:29:03.035Z,1.44
2023-03-29T04:30:07.746Z,1.43
2023-03-29T04:31:14.395Z,1.39
2023-03-29T04:32:16.409Z,1.35
2023-03-29T04:33:19.017Z,1.26
2023-03-29T04:34:21.063Z,1.24
2023-03-29T04:35:23.434Z,1.27
2023-03-29T04:36:26.213Z,1.35
2023-03-29T04:37:29.964Z,1.40
2023-03-29T04:38:36.286Z,1.44
2023-03-29T04:39:39.245Z,1.44
2023-03-29T04:40:41.230Z,1.34
2023-03-29T04:41:43.308Z,1.33
2023-03-29T04:42:47.691Z,1.37
2023-03-29T04:43:49.708Z,1.40
2023-03-29T04:44:51.804Z,1.38
2023-03-29T04:45:54.565Z,1.32
2023-03-29T04:46:56.690Z,1.34
2023-03-29T04:48:02.364Z,1.31
2023-03-29T04:49:04.607Z,1.33
2023-03-29T04:50:08.527Z,1.35
2023-03-29T04:51:10.514Z,1.36
2023-03-29T04:52:12.574Z,1.33
2023-03-29T04:53:14.653Z,1.35
2023-03-29T04:54:16.692Z,1.36
2023-03-29T04:55:18.783Z,1.35
2023-03-29T04:56:20.738Z,1.33
2023-03-29T04:57:22.844Z,1.34
2023-03-29T04:58:28.275Z,1.34
2023-03-29T04:59:34.049Z,1.36
2023-03-29T05:00:36.134Z,1.42
2023-03-29T05:01:38.220Z,1.39
2023-03-29T05:02:40.327Z,1.39
2023-03-29T05:03:42.412Z,1.40
2023-03-29T05:04:44.496Z,1.37
2023-03-29T05:05:46.485Z,1.42
2023-03-29T05:06:49.264Z,1.40
2023-03-29T05:07:51.563Z,1.42
2023-03-29T05:08:53.742Z,1.42
2023-03-29T05:09:55.738Z,1.44
2023-03-29T05:10:57.902Z,1.46
2023-03-29T05:11:59.896Z,1.45
2023-03-29T05:13:04.240Z,1.48
2023-03-29T05:14:07.595Z,1.46
2023-03-29T05:15:10.210Z,1.46
2023-03-29T05:16:12.423Z,1.47
2023-03-29T05:17:14.732Z,1.55
2023-03-29T05:18:16.626Z,1.60
2023-03-29T05:19:21.987Z,1.55
2023-03-29T05:20:25.280Z,1.55
2023-03-29T05:21:28.693Z,1.57
2023-03-29T05:22:31.701Z,1.60
2023-03-29T05:23:34.612Z,1.66
2023-03-29T05:24:36.719Z,1.66
2023-03-29T05:25:38.820Z,1.70
2023-03-29T05:26:40.780Z,1.76
2023-03-29T05:27:43.541Z,1.75
2023-03-29T05:28:46.283Z,1.78
2023-03-29T05:29:49.231Z,1.79
2023-03-29T05:31:02.715Z,1.80
2023-03-29T05:32:05.190Z,1.84
2023-03-29T05:33:07.439Z,1.87
2023-03-29T05:34:09.421Z,1.90
2023-03-29T05:35:12.003Z,1.95
2023-03-29T05:36:15.832Z,1.98
2023-03-29T05:37:18.132Z,2.00
2023-03-29T05:38:20.116Z,1.96
2023-03-29T05:39:22.086Z,1.94
2023-03-29T05:40:27.437Z,1.90
2023-03-29T05:41:29.580Z,1.91
2023-03-29T05:42:31.864Z,1.97
2023-03-29T05:43:33.996Z,1.99
2023-03-29T05:44:35.956Z,1.94
2023-03-29T05:45:37.958Z,1.88
2023-03-29T05:46:40.019Z,1.83
2023-03-29T05:47:42.017Z,1.79
2023-03-29T05:48:44.340Z,1.82
2023-03-29T05:49:46.579Z,1.88
2023-03-29T05:50:50.292Z,1.84
2023-03-29T05:51:52.614Z,1.84
2023-03-29T05:52:54.589Z,1.83
2023-03-29T05:53:56.855Z,1.76
2023-03-29T05:54:58.932Z,1.72
2023-03-29T05:56:02.536Z,1.69
2023-03-29T05:57:04.874Z,1.69
2023-03-29T05:58:07.113Z,1.72
2023-03-29T05:59:09.117Z,1.77
2023-03-29T06:00:24.341Z,1.81
2023-03-29T06:01:26.756Z,1.83
2023-03-29T06:02:28.922Z,1.83
2023-03-29T06:03:31.238Z,1.83
2023-03-29T06:04:33.913Z,1.79
2023-03-29T06:05:37.116Z,1.81
2023-03-29T06:06:39.194Z,1.84
2023-03-29T06:07:41.217Z,1.82
2023-03-29T06:08:44.687Z,1.82
2023-03-29T06:09:46.666Z,1.82
2023-03-29T06:10:49.671Z,1.80
2023-03-29T06:11:52.077Z,1.84
2023-03-29T06:12:54.024Z,1.90
2023-03-29T06:13:56.040Z,1.94
2023-03-29T06:15:03.497Z,1.95
2023-03-29T06:16:06.725Z,1.95
2023-03-29T06:17:08.769Z,1.95
2023-03-29T06:18:11.265Z,1.93
2023-03-29T06:19:13.160Z,1.91
2023-03-29T06:20:15.336Z,1.92
2023-03-29T06:21:17.351Z,1.94
2023-03-29T06:22:19.400Z,1.96
2023-03-29T06:23:22.818Z,1.99
2023-03-29T06:24:25.261Z,2.03
2023-03-29T06:25:27.120Z,1.96
2023-03-29T06:26:29.473Z,1.84
2023-03-29T06:27:31.803Z,1.76
2023-03-29T06:28:33.820Z,1.74
2023-03-29T06:29:36.071Z,1.74
2023-03-29T06:30:39.562Z,1.67
2023-03-29T06:31:42.556Z,1.60
2023-03-29T06:32:44.902Z,1.60
2023-03-29T06:33:47.801Z,1.64
2023-03-29T06:34:50.261Z,1.69
2023-03-29T06:35:52.248Z,1.65
2023-03-29T06:36:55.190Z,1.67
2023-03-29T06:37:57.091Z,1.77
2023-03-29T06:38:59.731Z,1.77
2023-03-29T06:40:03.353Z,1.72
2023-03-29T06:41:08.189Z,1.75
2023-03-29T06:42:20.475Z,1.74
2023-03-29T06:43:23.354Z,1.72
2023-03-29T06:44:28.553Z,1.67
2023-03-29T06:45:38.930Z,1.65
2023-03-29T06:46:41.035Z,1.65
2023-03-29T06:47:43.164Z,1.57
2023-03-29T06:48:46.126Z,1.53
2023-03-29T06:49:48.161Z,1.54
2023-03-29T06:50:50.501Z,1.60
2023-03-29T06:51:53.200Z,1.61
2023-03-29T06:52:55.148Z,1.62
2023-03-29T06:53:57.183Z,1.63
2023-03-29T06:55:01.895Z,1.62
2023-03-29T06:56:09.644Z,1.64
2023-03-29T06:57:13.397Z,1.66
2023-03-29T06:58:15.714Z,1.69
2023-03-29T06:59:18.292Z,1.76
2023-03-29T07:00:28.309Z,1.76
2023-03-29T07:01:30.471Z,1.76
2023-03-29T07:02:32.499Z,1.74
2023-03-29T07:03:35.593Z,1.75
2023-03-29T07:04:37.571Z,1.79
2023-03-29T07:05:42.917Z,1.83
2023-03-29T07:06:48.585Z,1.83
2023-03-29T07:08:08.465Z,1.84
2023-03-29T07:09:13.286Z,1.77
2023-03-29T07:10:15.299Z,1.80
2023-03-29T07:11:19.085Z,1.83
2023-03-29T07:12:23.178Z,1.83
2023-03-29T07:13:26.559Z,1.82
2023-03-29T07:14:31.698Z,1.80
2023-03-29T07:15:34.351Z,1.74
2023-03-29T07:16:37.881Z,1.67
2023-03-29T07:17:39.977Z,1.64
2023-03-29T07:18:44.321Z,1.61
2023-03-29T07:19:47.099Z,1.65
2023-03-29T07:20:49.595Z,1.72
2023-03-29T07:21:53.666Z,1.72
2023-03-29T07:22:55.633Z,1.66
2023-03-29T07:24:00.667Z,1.68
2023-03-29T07:25:02.647Z,1.70
2023-03-29T07:26:08.238Z,1.78
2023-03-29T07:27:10.390Z,1.82
2023-03-29T07:28:13.117Z,1.87
2023-03-29T07:29:16.680Z,1.90
2023-03-29T07:30:23.059Z,1.91
2023-03-29T07:31:25.063Z,1.91
2023-03-29T07:32:28.558Z,1.91
2023-03-29T07:33:30.802Z,1.95
2023-03-29T07:34:33.505Z,1.96
2023-03-29T07:35:36.376Z,1.95
2023-03-29T07:36:39.419Z,1.98
2023-03-29T07:37:43.117Z,2.01
2023-03-29T07:38:45.243Z,1.96
2023-03-29T07:39:47.907Z,1.97
2023-03-29T07:40:49.934Z,2.03
2023-03-29T07:41:51.967Z,2.04
2023-03-29T07:42:56.881Z,2.05
2023-03-29T07:43:59.208Z,2.04
2023-03-29T07:45:01.613Z,2.06
2023-03-29T07:46:05.135Z,2.08
2023-03-29T07:47:07.145Z,2.10
2023-03-29T07:48:09.308Z,2.12
2023-03-29T07:49:11.298Z,2.16
2023-03-29T07:50:14.760Z,2.18
2023-03-29T07:51:17.506Z,2.21
2023-03-29T07:52:19.491Z,2.25
2023-03-29T07:53:22.053Z,2.30
2023-03-29T07:54:24.200Z,2.30
2023-03-29T07:55:26.403Z,2.29
2023-03-29T07:56:28.361Z,2.31
2023-03-29T07:57:30.570Z,2.28
2023-03-29T07:58:32.613Z,2.23
2023-03-29T07:59:34.564Z,2.27
2023-03-29T08:00:36.522Z,2.31
2023-03-29T08:01:39.465Z,2.32
2023-03-29T08:02:50.001Z,2.34
2023-03-29T08:03:52.752Z,2.37
2023-03-29T08:04:54.934Z,2.34
2023-03-29T08:05:57.102Z,2.34
2023-03-29T08:06:59.093Z,2.36
2023-03-29T08:08:01.218Z,2.38
2023-03-29T08:09:03.261Z,2.42
2023-03-29T08:10:05.890Z,2.39
2023-03-29T08:11:09.142Z,2.33
2023-03-29T08:12:11.241Z,2.23
2023-03-29T08:13:13.653Z,2.17
2023-03-29T08:14:15.724Z,2.20
2023-03-29T08:15:17.890Z,2.26
2023-03-29T08:16:19.959Z,2.28
2023-03-29T08:17:22.579Z,2.26
2023-03-29T08:18:24.543Z,2.28
2023-03-29T08:19:27.324Z,2.29
2023-03-29T08:20:29.368Z,2.32
2023-03-29T08:21:32.162Z,2.29
2023-03-29T08:22:34.856Z,2.28
2023-03-29T08:23:36.973Z,2.30
2023-03-29T08:24:39.083Z,2.33
2023-03-29T08:25:41.705Z,2.35
2023-03-29T08:26:43.765Z,2.39
2023-03-29T08:27:45.726Z,2.43
2023-03-29T08:28:47.850Z,2.45
2023-03-29T08:29:49.848Z,2.52
2023-03-29T08:30:53.011Z,2.54
2023-03-29T08:31:56.711Z,2.56
2023-03-29T08:32:58.895Z,2.60
2023-03-29T08:34:01.110Z,2.59
2023-03-29T08:35:07.662Z,2.56
2023-03-29T08:36:10.472Z,2.51
2023-03-29T08:37:12.701Z,2.52
2023-03-29T08:38:15.080Z,2.56
2023-03-29T08:39:18.497Z,2.61
2023-03-29T08:40:28.510Z,2.70
2023-03-29T08:41:57.970Z,2.70
2023-03-29T08:43:12.611Z,2.75
2023-03-29T08:44:43.788Z,2.82
2023-03-29T08:46:35.325Z,2.84
2023-03-29T08:47:57.045Z,2.79
2023-03-29T08:49:04.474Z,2.85
2023-03-29T08:50:07.729Z,2.80
2023-03-29T08:51:19.850Z,2.85
2023-03-29T08:52:38.932Z,2.91
2023-03-29T08:53:47.168Z,3.03
2023-03-29T08:54:54.022Z,3.00
2023-03-29T08:55:59.369Z,3.00
2023-03-29T08:57:10.791Z,3.05
2023-03-29T08:58:17.981Z,3.08
2023-03-29T08:59:29.963Z,3.17
2023-03-29T09:00:43.161Z,3.24
2023-03-29T09:01:48.029Z,3.26
2023-03-29T09:02:54.190Z,3.29
2023-03-29T09:04:10.321Z,3.27
2023-03-29T09:05:29.785Z,3.29
2023-03-29T09:06:31.879Z,3.31
2023-03-29T09:07:34.055Z,3.30
2023-03-29T09:08:42.777Z,3.30
2023-03-29T09:09:45.246Z,3.32
2023-03-29T09:10:59.798Z,3.32
2023-03-29T09:12:17.398Z,3.36
2023-03-29T09:13:30.254Z,3.36
2023-03-29T09:14:56.873Z,3.33
2023-03-29T09:16:06.358Z,3.33
2023-03-29T09:17:20.357Z,3.32
2023-03-29T09:18:27.205Z,3.29
2023-03-29T09:19:39.647Z,3.25
2023-03-29T09:20:51.557Z,3.34
2023-03-29T09:22:05.835Z,3.35
2023-03-29T09:23:47.457Z,3.44
2023-03-29T09:25:14.402Z,3.51
2023-03-29T09:26:46.035Z,3.55
2023-03-29T09:27:57.172Z,3.55
2023-03-29T09:29:19.006Z,3.55
2023-03-29T09:30:26.831Z,3.53
2023-03-29T09:31:41.901Z,3.48
2023-03-29T09:32:54.209Z,3.50
2023-03-29T09:34:14.561Z,3.50
2023-03-29T09:35:32.342Z,3.52
2023-03-29T09:36:42.807Z,3.59
2023-03-29T09:37:48.018Z,3.64
2023-03-29T09:38:54.488Z,3.64
2023-03-29T09:39:57.978Z,3.67
2023-03-29T09:41:07.284Z,3.65
2023-03-29T09:42:12.267Z,3.64
2023-03-29T09:43:18.669Z,3.65
2023-03-29T09:44:31.166Z,3.69
2023-03-29T09:45:35.823Z,3.71
2023-03-29T09:46:41.485Z,3.71
2023-03-29T09:48:19.551Z,3.74
2023-03-29T09:49:26.016Z,3.79
2023-03-29T09:50:34.226Z,3.74
2023-03-29T09:51:37.749Z,3.74
2023-03-29T09:52:39.841Z,3.77
2023-03-29T09:53:41.843Z,3.81
2023-03-29T09:54:44.675Z,3.87
2023-03-29T09:55:51.134Z,3.89
2023-03-29T09:56:53.443Z,3.89
2023-03-29T09:57:58.310Z,3.93
2023-03-29T09:59:01.040Z,4.01
2023-03-29T10:00:05.983Z,4.04
2023-03-29T10:01:11.262Z,4.11
2023-03-29T10:02:14.323Z,4.12
2023-03-29T10:03:24.073Z,4.15
2023-03-29T10:04:26.332Z,4.21
2023-03-29T10:05:30.293Z,4.20
2023-03-29T10:06:34.600Z,4.24
2023-03-29T10:07:46.539Z,4.26
2023-03-29T10:08:57.908Z,4.21
2023-03-29T10:10:00.622Z,4.24
2023-03-29T10:11:07.890Z,4.27
2023-03-29T10:12:11.996Z,4.28
2023-03-29T10:13:16.838Z,4.25
2023-03-29T10:14:20.848Z,4.23
2023-03-29T10:15:29.174Z,4.21
2023-03-29T10:16:35.396Z,4.25
2023-03-29T10:17:40.902Z,4.27
2023-03-29T10:18:43.223Z,4.23
2023-03-29T10:19:50.144Z,4.24
2023-03-29T10:20:58.108Z,4.29
2023-03-29T10:22:00.897Z,4.34
2023-03-29T10:23:02.847Z,4.37
2023-03-29T10:24:04.867Z,4.38
2023-03-29T10:25:13.670Z,4.35
2023-03-29T10:26:24.287Z,4.35
2023-03-29T10:27:29.437Z,4.32
2023-03-29T10:28:32.288Z,4.31
2023-03-29T10:29:39.031Z,4.24
2023-03-29T10:30:40.887Z,4.20
2023-03-29T10:31:43.378Z,4.18
2023-03-29T10:32:45.270Z,4.14
2023-03-29T10:33:51.637Z,4.16
2023-03-29T10:34:53.944Z,4.20
2023-03-29T10:35:57.584Z,4.23
2023-03-29T10:37:00.404Z,4.25
2023-03-29T10:38:04.946Z,4.30
2023-03-29T10:39:07.145Z,4.31
2023-03-29T10:40:19.141Z,4.32
2023-03-29T10:41:23.540Z,4.34
2023-03-29T10:42:26.598Z,4.34
2023-03-29T10:43:39.188Z,4.38
2023-03-29T10:44:41.455Z,4.42
2023-03-29T10:45:43.918Z,4.45
2023-03-29T10:46:46.809Z,4.46
2023-03-29T10:47:48.834Z,4.46
2023-03-29T10:48:52.074Z,4.41
2023-03-29T10:49:59.119Z,4.48
2023-03-29T10:51:02.285Z,4.56
2023-03-29T10:52:07.202Z,4.59
2023-03-29T10:53:19.873Z,4.63
2023-03-29T10:54:24.378Z,4.68
2023-03-29T10:55:28.709Z,4.70
2023-03-29T10:56:33.463Z,4.68
2023-03-29T10:57:50.548Z,4.69
2023-03-29T10:58:58.439Z,4.69
2023-03-29T11:00:00.215Z,4.71
2023-03-29T11:01:03.312Z,4.66
2023-03-29T11:02:14.664Z,4.67
2023-03-29T11:03:22.376Z,4.71
2023-03-29T11:04:27.658Z,4.70
2023-03-29T11:05:48.314Z,4.74
2023-03-29T11:06:59.236Z,4.76
2023-03-29T11:08:13.101Z,4.77
2023-03-29T11:09:14.849Z,4.73
2023-03-29T11:10:35.423Z,4.73
2023-03-29T11:12:04.451Z,4.78
2023-03-29T11:13:25.024Z,4.78
2023-03-29T11:14:42.279Z,4.81
2023-03-29T11:15:51.715Z,4.82
2023-03-29T11:17:01.682Z,4.80
2023-03-29T11:18:09.726Z,4.82
2023-03-29T11:19:12.820Z,4.87
2023-03-29T11:20:20.860Z,4.87
2023-03-29T11:21:36.403Z,4.90
2023-03-29T11:22:44.910Z,4.91
2023-03-29T11:23:47.224Z,4.92
2023-03-29T11:24:51.989Z,4.91
2023-03-29T11:26:01.176Z,4.90
2023-03-29T11:27:23.095Z,4.91
2023-03-29T11:28:29.092Z,4.94
2023-03-29T11:29:49.315Z,4.90
2023-03-29T11:31:09.762Z,4.90
2023-03-29T11:32:11.677Z,4.90
2023-03-29T11:33:20.745Z,4.91
2023-03-29T11:34:29.149Z,4.95
2023-03-29T11:35:45.840Z,4.96
2023-03-29T11:36:59.590Z,4.99
2023-03-29T11:38:10.597Z,4.96
2023-03-29T11:39:12.401Z,4.97
2023-03-29T11:40:20.207Z,4.96
2023-03-29T11:41:25.399Z,4.97
2023-03-29T11:42:29.754Z,4.95
2023-03-29T11:43:32.453Z,4.97
2023-03-29T11:44:35.885Z,4.96
2023-03-29T11:45:47.062Z,5.00
2023-03-29T11:46:51.996Z,5.00
2023-03-29T11:47:55.040Z,5.04
2023-03-29T11:49:02.953Z,5.03
2023-03-29T11:50:08.045Z,5.04
2023-03-29T11:51:13.187Z,5.08
2023-03-29T11:52:33.968Z,5.09
2023-03-29T11:53:39.771Z,5.02
2023-03-29T11:54:45.084Z,5.04
2023-03-29T11:55:48.563Z,4.99
2023-03-29T11:56:55.244Z,5.00
2023-03-29T11:57:57.061Z,5.05
2023-03-29T11:59:01.683Z,5.04
2023-03-29T12:00:12.653Z,5.07
2023-03-29T12:01:18.083Z,5.05
2023-03-29T12:02:29.892Z,5.01
2023-03-29T12:03:46.932Z,5.00
2023-03-29T12:04:51.775Z,4.94
2023-03-29T12:06:00.449Z,4.93
2023-03-29T12:07:09.588Z,4.96
2023-03-29T12:08:17.149Z,5.03
2023-03-29T12:09:21.957Z,4.98
2023-03-29T12:10:27.592Z,4.97
2023-03-29T12:11:32.128Z,4.98
2023-03-29T12:12:46.752Z,4.97
2023-03-29T12:13:54.794Z,5.01
2023-03-29T12:15:11.079Z,5.01
2023-03-29T12:16:18.571Z,5.00
2023-03-29T12:17:23.467Z,5.03
2023-03-29T12:18:31.020Z,5.01
2023-03-29T12:19:56.013Z,5.07
2023-03-29T12:21:02.552Z,5.11
2023-03-29T12:22:08.215Z,5.15
2023-03-29T12:23:13.094Z,5.19
2023-03-29T12:24:16.569Z,5.22
2023-03-29T12:25:23.318Z,5.32
2023-03-29T12:26:25.978Z,5.35
2023-03-29T12:27:27.825Z,5.39
2023-03-29T12:28:48.639Z,5.47
2023-03-29T12:30:08.891Z,5.48
2023-03-29T12:31:29.428Z,5.43
2023-03-29T12:32:37.860Z,5.40
2023-03-29T12:33:39.588Z,5.38
2023-03-29T12:34:59.992Z,5.40
2023-03-29T12:36:04.779Z,5.47
2023-03-29T12:37:09.635Z,5.55
2023-03-29T12:38:19.961Z,5.58
2023-03-29T12:39:22.570Z,5.60
2023-03-29T12:40:27.914Z,5.62
2023-03-29T12:41:36.418Z,5.60
2023-03-29T12:42:48.430Z,5.61
2023-03-29T12:43:51.142Z,5.59
2023-03-29T12:44:59.977Z,5.56
2023-03-29T12:46:07.630Z,5.62
2023-03-29T12:47:18.731Z,5.61
2023-03-29T12:48:22.630Z,5.62
2023-03-29T12:49:29.954Z,5.58
2023-03-29T12:50:37.172Z,5.55
2023-03-29T12:51:41.285Z,5.54
2023-03-29T12:52:43.227Z,5.59
2023-03-29T12:53:45.281Z,5.64
2023-03-29T12:54:53.642Z,5.63
2023-03-29T12:56:02.169Z,5.66
2023-03-29T12:57:27.767Z,5.68
2023-03-29T12:58:47.942Z,5.70
2023-03-29T12:59:50.155Z,5.70
2023-03-29T13:01:06.116Z,5.67
2023-03-29T13:02:19.911Z,5.64
2023-03-29T13:03:27.780Z,5.62
2023-03-29T13:04:38.086Z,5.66
2023-03-29T13:05:39.900Z,5.64
2023-03-29T13:06:47.657Z,5.65
2023-03-29T13:07:49.552Z,5.68
2023-03-29T13:08:57.754Z,5.65
2023-03-29T13:10:02.615Z,5.65
2023-03-29T13:11:05.549Z,5.67
2023-03-29T13:12:13.304Z,5.71
2023-03-29T13:13:21.172Z,5.73
2023-03-29T13:14:26.381Z,5.74
2023-03-29T13:15:35.942Z,5.74
2023-03-29T13:16:40.503Z,5.76
2023-03-29T13:17:43.760Z,5.75
2023-03-29T13:19:02.932Z,5.76
2023-03-29T13:20:11.122Z,5.74
2023-03-29T13:21:21.251Z,5.71
2023-03-29T13:22:43.311Z,5.73
2023-03-29T13:23:57.478Z,5.74
2023-03-29T13:25:02.731Z,5.75
2023-03-29T13:26:08.404Z,5.74
2023-03-29T13:27:10.797Z,5.77
2023-03-29T13:28:30.413Z,5.80
2023-03-29T13:29:38.291Z,5.87
2023-03-29T13:30:50.421Z,5.87
2023-03-29T13:31:54.971Z,5.90
2023-03-29T13:33:06.892Z,5.95
2023-03-29T13:34:31.319Z,5.98
2023-03-29T13:35:44.999Z,5.97
2023-03-29T13:36:54.108Z,5.97
2023-03-29T13:38:14.853Z,5.98
2023-03-29T13:39:19.672Z,6.03
2023-03-29T13:40:32.082Z,6.05
2023-03-29T13:41:46.360Z,6.08
2023-03-29T13:42:57.430Z,6.12
2023-03-29T13:43:59.878Z,6.15
2023-03-29T13:45:24.695Z,6.17
2023-03-29T13:46:37.598Z,6.20
2023-03-29T13:47:58.799Z,6.23
2023-03-29T13:49:06.256Z,6.28
2023-03-29T13:50:31.263Z,6.26
2023-03-29T13:51:33.027Z,6.32
2023-03-29T13:52:39.076Z,6.36
2023-03-29T13:53:44.470Z,6.42
2023-03-29T13:55:04.691Z,6.47
2023-03-29T13:56:08.811Z,6.48
2023-03-29T13:57:10.718Z,6.56
2023-03-29T13:58:32.888Z,6.64
2023-03-29T14:00:07.432Z,6.81
2023-03-29T14:01:12.482Z,6.92
2023-03-29T14:02:20.129Z,6.98
2023-03-29T14:03:29.879Z,7.01
2023-03-29T14:04:34.940Z,7.04
2023-03-29T14:05:38.852Z,7.10
2023-03-29T14:06:43.069Z,7.13
2023-03-29T14:07:48.017Z,7.16
2023-03-29T14:08:50.206Z,7.17
2023-03-29T14:09:52.880Z,7.20
2023-03-29T14:10:55.949Z,7.20
2023-03-29T14:12:01.584Z,7.22
2023-03-29T14:13:04.316Z,7.21
2023-03-29T14:14:08.556Z,7.20
2023-03-29T14:15:18.639Z,7.20
2023-03-29T14:16:21.142Z,7.14
2023-03-29T14:17:24.882Z,7.18
2023-03-29T14:18:27.916Z,7.22
2023-03-29T14:19:29.885Z,7.22
2023-03-29T14:20:33.186Z,7.20
2023-03-29T14:21:35.081Z,7.18
2023-03-29T14:22:38.007Z,7.22
2023-03-29T14:23:43.163Z,7.25
2023-03-29T14:25:07.740Z,7.22
2023-03-29T14:26:13.640Z,7.21
2023-03-29T14:27:16.166Z,7.24
2023-03-29T14:28:26.492Z,7.26
2023-03-29T14:29:34.904Z,7.29
2023-03-29T14:30:36.685Z,7.34
2023-03-29T14:31:40.316Z,7.38
2023-03-29T14:32:42.303Z,7.47
2023-03-29T14:33:44.144Z,7.52
2023-03-29T14:34:49.543Z,7.55
2023-03-29T14:35:52.171Z,7.57
2023-03-29T14:36:54.426Z,7.55
2023-03-29T14:37:56.833Z,7.50
2023-03-29T14:39:02.091Z,7.45
2023-03-29T14:40:09.052Z,7.46
2023-03-29T14:41:10.940Z,7.50
2023-03-29T14:42:16.707Z,7.54
2023-03-29T14:43:19.990Z,7.53